sensor_id;sensor_type;location;lat;lon;timestamp;P1;durP1;ratioP1;P2;durP2;ratioP2
1082;SDS011;530;51.448;7.238;2022-08-05T00:02:07;5.47;;;3.00;;
1082;SDS011;530;51.448;7.238;2022-08-05T00:04:33;3.63;;;3.03;;
1082;SDS011;530;51.448;7.238;2022-08-05T00:06:58;3.67;;;3.13;;
1082;SDS011;530;51.448;7.238;2022-08-05T00:09:24;4.53;;;2.97;;
1082;SDS011;530;51.448;7.238;2022-08-05T00:11:50;4.70;;;3.30;;
1082;SDS011;530;51.448;7.238;2022-08-05T00:14:16;12.03;;;3.70;;
1082;SDS011;530;51.448;7.238;2022-08-05T00:16:42;3.90;;;2.90;;
1082;SDS011;530;51.448;7.238;2022-08-05T00:19:09;6.60;;;3.73;;
1082;SDS011;530;51.448;7.238;2022-08-05T00:21:34;3.50;;;3.20;;
1082;SDS011;530;51.448;7.238;2022-08-05T00:24:00;4.57;;;3.10;;
1082;SDS011;530;51.448;7.238;2022-08-05T00:26:26;4.30;;;3.53;;
1082;SDS011;530;51.448;7.238;2022-08-05T00:28:51;5.20;;;3.40;;
1082;SDS011;530;51.448;7.238;2022-08-05T00:31:17;3.90;;;3.43;;
1082;SDS011;530;51.448;7.238;2022-08-05T00:33:43;5.20;;;3.60;;
1082;SDS011;530;51.448;7.238;2022-08-05T00:36:08;5.70;;;3.87;;
1082;SDS011;530;51.448;7.238;2022-08-05T00:38:34;4.33;;;3.37;;
1082;SDS011;530;51.448;7.238;2022-08-05T00:41:00;4.60;;;3.37;;
1082;SDS011;530;51.448;7.238;2022-08-05T00:43:26;4.40;;;3.40;;
1082;SDS011;530;51.448;7.238;2022-08-05T00:45:53;3.63;;;3.30;;
1082;SDS011;530;51.448;7.238;2022-08-05T00:48:20;4.47;;;3.50;;
1082;SDS011;530;51.448;7.238;2022-08-05T00:50:47;7.30;;;3.30;;
1082;SDS011;530;51.448;7.238;2022-08-05T00:53:15;4.10;;;3.63;;
1082;SDS011;530;51.448;7.238;2022-08-05T00:55:42;3.90;;;2.93;;
1082;SDS011;530;51.448;7.238;2022-08-05T00:58:09;3.40;;;3.10;;
1082;SDS011;530;51.448;7.238;2022-08-05T01:00:35;5.00;;;3.53;;
1082;SDS011;530;51.448;7.238;2022-08-05T01:03:00;3.80;;;2.97;;
1082;SDS011;530;51.448;7.238;2022-08-05T01:05:26;3.03;;;2.80;;
1082;SDS011;530;51.448;7.238;2022-08-05T01:07:52;5.03;;;3.40;;
1082;SDS011;530;51.448;7.238;2022-08-05T01:10:19;5.37;;;3.87;;
1082;SDS011;530;51.448;7.238;2022-08-05T01:12:52;4.90;;;3.90;;
1082;SDS011;530;51.448;7.238;2022-08-05T01:15:24;4.83;;;3.63;;
1082;SDS011;530;51.448;7.238;2022-08-05T01:18:00;4.53;;;3.93;;
1082;SDS011;530;51.448;7.238;2022-08-05T01:28:44;4.93;;;3.50;;
1082;SDS011;530;51.448;7.238;2022-08-05T01:31:20;4.80;;;4.30;;
1082;SDS011;530;51.448;7.238;2022-08-05T01:33:49;3.90;;;3.50;;
1082;SDS011;530;51.448;7.238;2022-08-05T01:36:21;5.20;;;3.60;;
1082;SDS011;530;51.448;7.238;2022-08-05T01:38:51;5.73;;;3.93;;
1082;SDS011;530;51.448;7.238;2022-08-05T01:41:20;7.07;;;4.10;;
1082;SDS011;530;51.448;7.238;2022-08-05T01:43:48;3.93;;;3.63;;
1082;SDS011;530;51.448;7.238;2022-08-05T01:46:15;5.83;;;3.70;;
1082;SDS011;530;51.448;7.238;2022-08-05T01:48:43;4.77;;;3.87;;
1082;SDS011;530;51.448;7.238;2022-08-05T01:51:10;4.23;;;3.83;;
1082;SDS011;530;51.448;7.238;2022-08-05T01:53:38;5.10;;;3.63;;
1082;SDS011;530;51.448;7.238;2022-08-05T01:56:05;4.57;;;4.00;;
1082;SDS011;530;51.448;7.238;2022-08-05T01:58:33;4.90;;;3.00;;
1082;SDS011;530;51.448;7.238;2022-08-05T02:01:02;5.40;;;3.90;;
1082;SDS011;530;51.448;7.238;2022-08-05T02:03:35;3.97;;;3.57;;
1082;SDS011;530;51.448;7.238;2022-08-05T02:06:04;4.10;;;3.10;;
1082;SDS011;530;51.448;7.238;2022-08-05T02:08:32;4.60;;;3.10;;
1082;SDS011;530;51.448;7.238;2022-08-05T02:11:01;3.90;;;3.60;;
1082;SDS011;530;51.448;7.238;2022-08-05T02:16:43;4.17;;;3.77;;
1082;SDS011;530;51.448;7.238;2022-08-05T02:19:16;4.83;;;3.53;;
1082;SDS011;530;51.448;7.238;2022-08-05T02:22:08;6.30;;;3.37;;
1082;SDS011;530;51.448;7.238;2022-08-05T02:24:38;4.30;;;3.50;;
1082;SDS011;530;51.448;7.238;2022-08-05T02:27:08;5.50;;;3.53;;
1082;SDS011;530;51.448;7.238;2022-08-05T02:29:35;3.80;;;3.50;;
1082;SDS011;530;51.448;7.238;2022-08-05T02:32:02;5.03;;;3.30;;
1082;SDS011;530;51.448;7.238;2022-08-05T02:34:31;3.40;;;3.10;;
1082;SDS011;530;51.448;7.238;2022-08-05T02:37:00;5.70;;;3.40;;
1082;SDS011;530;51.448;7.238;2022-08-05T02:39:30;4.70;;;4.03;;
1082;SDS011;530;51.448;7.238;2022-08-05T02:41:59;3.90;;;3.50;;
1082;SDS011;530;51.448;7.238;2022-08-05T02:44:27;5.40;;;3.43;;
1082;SDS011;530;51.448;7.238;2022-08-05T02:46:55;5.80;;;3.83;;
1082;SDS011;530;51.448;7.238;2022-08-05T02:49:22;4.70;;;4.30;;
1082;SDS011;530;51.448;7.238;2022-08-05T02:51:49;9.00;;;4.90;;
1082;SDS011;530;51.448;7.238;2022-08-05T02:54:16;6.53;;;4.33;;
1082;SDS011;530;51.448;7.238;2022-08-05T02:56:44;4.53;;;4.13;;
1082;SDS011;530;51.448;7.238;2022-08-05T02:59:10;3.73;;;3.40;;
1082;SDS011;530;51.448;7.238;2022-08-05T03:01:38;5.03;;;4.00;;
1082;SDS011;530;51.448;7.238;2022-08-05T03:04:05;5.83;;;4.00;;
1082;SDS011;530;51.448;7.238;2022-08-05T03:06:35;5.10;;;4.30;;
1082;SDS011;530;51.448;7.238;2022-08-05T03:09:02;4.90;;;4.40;;
1082;SDS011;530;51.448;7.238;2022-08-05T03:11:29;6.37;;;4.47;;
1082;SDS011;530;51.448;7.238;2022-08-05T03:13:54;5.30;;;4.80;;
1082;SDS011;530;51.448;7.238;2022-08-05T03:16:20;5.60;;;4.80;;
1082;SDS011;530;51.448;7.238;2022-08-05T03:18:46;6.40;;;5.00;;
1082;SDS011;530;51.448;7.238;2022-08-05T03:21:12;7.20;;;5.07;;
1082;SDS011;530;51.448;7.238;2022-08-05T03:23:39;6.33;;;5.40;;
1082;SDS011;530;51.448;7.238;2022-08-05T03:26:06;6.20;;;5.60;;
1082;SDS011;530;51.448;7.238;2022-08-05T03:28:32;7.30;;;5.03;;
1082;SDS011;530;51.448;7.238;2022-08-05T03:30:59;7.73;;;5.70;;
1082;SDS011;530;51.448;7.238;2022-08-05T03:33:26;6.37;;;5.77;;
1082;SDS011;530;51.448;7.238;2022-08-05T03:35:54;6.33;;;5.60;;
1082;SDS011;530;51.448;7.238;2022-08-05T03:38:24;6.47;;;5.07;;
1082;SDS011;530;51.448;7.238;2022-08-05T03:40:50;6.77;;;5.50;;
1082;SDS011;530;51.448;7.238;2022-08-05T03:43:19;5.87;;;5.27;;
1082;SDS011;530;51.448;7.238;2022-08-05T03:45:48;6.70;;;4.80;;
1082;SDS011;530;51.448;7.238;2022-08-05T03:48:14;5.70;;;5.00;;
1082;SDS011;530;51.448;7.238;2022-08-05T03:50:41;8.13;;;5.13;;
1082;SDS011;530;51.448;7.238;2022-08-05T03:53:13;6.40;;;5.03;;
1082;SDS011;530;51.448;7.238;2022-08-05T03:55:46;5.67;;;4.77;;
1082;SDS011;530;51.448;7.238;2022-08-05T03:58:17;6.03;;;4.83;;
1082;SDS011;530;51.448;7.238;2022-08-05T04:00:47;6.67;;;5.40;;
1082;SDS011;530;51.448;7.238;2022-08-05T04:03:15;5.60;;;5.03;;
1082;SDS011;530;51.448;7.238;2022-08-05T04:05:42;8.43;;;5.17;;
1082;SDS011;530;51.448;7.238;2022-08-05T04:08:09;6.60;;;5.40;;
1082;SDS011;530;51.448;7.238;2022-08-05T04:10:36;5.03;;;4.53;;
1082;SDS011;530;51.448;7.238;2022-08-05T04:13:02;7.67;;;5.63;;
1082;SDS011;530;51.448;7.238;2022-08-05T04:15:28;6.50;;;5.43;;
1082;SDS011;530;51.448;7.238;2022-08-05T04:17:54;7.80;;;5.07;;
1082;SDS011;530;51.448;7.238;2022-08-05T04:20:21;7.57;;;5.07;;
1082;SDS011;530;51.448;7.238;2022-08-05T04:22:48;6.57;;;5.97;;
1082;SDS011;530;51.448;7.238;2022-08-05T04:25:14;6.00;;;5.30;;
1082;SDS011;530;51.448;7.238;2022-08-05T04:27:40;6.50;;;5.80;;
1082;SDS011;530;51.448;7.238;2022-08-05T04:30:06;6.30;;;5.70;;
1082;SDS011;530;51.448;7.238;2022-08-05T04:32:33;6.03;;;5.23;;
1082;SDS011;530;51.448;7.238;2022-08-05T04:34:59;10.40;;;6.17;;
1082;SDS011;530;51.448;7.238;2022-08-05T04:37:24;8.67;;;5.60;;
1082;SDS011;530;51.448;7.238;2022-08-05T04:39:51;9.00;;;5.90;;
1082;SDS011;530;51.448;7.238;2022-08-05T04:42:16;6.17;;;5.67;;
1082;SDS011;530;51.448;7.238;2022-08-05T04:44:42;6.57;;;5.30;;
1082;SDS011;530;51.448;7.238;2022-08-05T04:47:08;7.53;;;6.33;;
1082;SDS011;530;51.448;7.238;2022-08-05T04:49:33;6.80;;;6.10;;
1082;SDS011;530;51.448;7.238;2022-08-05T04:51:59;8.20;;;6.50;;
1082;SDS011;530;51.448;7.238;2022-08-05T04:54:25;6.30;;;5.70;;
1082;SDS011;530;51.448;7.238;2022-08-05T04:56:53;5.87;;;5.33;;
1082;SDS011;530;51.448;7.238;2022-08-05T04:59:20;8.97;;;6.67;;
1082;SDS011;530;51.448;7.238;2022-08-05T05:01:46;7.73;;;7.00;;
1082;SDS011;530;51.448;7.238;2022-08-05T05:04:13;9.53;;;8.63;;
1082;SDS011;530;51.448;7.238;2022-08-05T05:06:39;9.10;;;8.20;;
1082;SDS011;530;51.448;7.238;2022-08-05T05:09:05;11.13;;;8.93;;
1082;SDS011;530;51.448;7.238;2022-08-05T05:11:31;11.70;;;8.77;;
1082;SDS011;530;51.448;7.238;2022-08-05T05:13:56;9.83;;;8.83;;
1082;SDS011;530;51.448;7.238;2022-08-05T05:16:22;10.87;;;9.07;;
1082;SDS011;530;51.448;7.238;2022-08-05T05:18:48;13.40;;;8.90;;
1082;SDS011;530;51.448;7.238;2022-08-05T05:21:14;13.67;;;9.60;;
1082;SDS011;530;51.448;7.238;2022-08-05T05:23:40;15.00;;;11.70;;
1082;SDS011;530;51.448;7.238;2022-08-05T05:26:05;11.27;;;10.27;;
1082;SDS011;530;51.448;7.238;2022-08-05T05:28:31;11.87;;;10.67;;
1082;SDS011;530;51.448;7.238;2022-08-05T05:30:57;14.07;;;12.70;;
1082;SDS011;530;51.448;7.238;2022-08-05T05:33:23;14.27;;;12.87;;
1082;SDS011;530;51.448;7.238;2022-08-05T05:35:49;13.63;;;12.03;;
1082;SDS011;530;51.448;7.238;2022-08-05T05:38:15;14.63;;;13.10;;
1082;SDS011;530;51.448;7.238;2022-08-05T05:40:41;12.97;;;11.67;;
1082;SDS011;530;51.448;7.238;2022-08-05T05:43:08;15.10;;;13.60;;
1082;SDS011;530;51.448;7.238;2022-08-05T05:45:34;14.50;;;12.70;;
1082;SDS011;530;51.448;7.238;2022-08-05T05:48:00;15.30;;;13.00;;
1082;SDS011;530;51.448;7.238;2022-08-05T05:50:26;15.13;;;13.63;;
1082;SDS011;530;51.448;7.238;2022-08-05T05:52:52;15.80;;;14.20;;
1082;SDS011;530;51.448;7.238;2022-08-05T05:55:18;14.40;;;12.57;;
1082;SDS011;530;51.448;7.238;2022-08-05T05:57:45;13.37;;;12.10;;
1082;SDS011;530;51.448;7.238;2022-08-05T06:00:12;13.67;;;12.47;;
1082;SDS011;530;51.448;7.238;2022-08-05T06:02:40;14.47;;;11.47;;
1082;SDS011;530;51.448;7.238;2022-08-05T06:05:07;12.93;;;11.63;;
1082;SDS011;530;51.448;7.238;2022-08-05T06:07:34;10.80;;;9.73;;
1082;SDS011;530;51.448;7.238;2022-08-05T06:09:59;11.27;;;10.17;;
1082;SDS011;530;51.448;7.238;2022-08-05T06:12:25;11.13;;;10.03;;
1082;SDS011;530;51.448;7.238;2022-08-05T06:14:51;11.30;;;10.30;;
1082;SDS011;530;51.448;7.238;2022-08-05T06:17:17;10.97;;;9.97;;
1082;SDS011;530;51.448;7.238;2022-08-05T06:19:42;10.03;;;9.03;;
1082;SDS011;530;51.448;7.238;2022-08-05T06:22:08;7.57;;;6.87;;
1082;SDS011;530;51.448;7.238;2022-08-05T06:24:34;8.70;;;7.87;;
1082;SDS011;530;51.448;7.238;2022-08-05T06:27:05;8.50;;;7.80;;
1082;SDS011;530;51.448;7.238;2022-08-05T06:29:30;10.70;;;9.37;;
1082;SDS011;530;51.448;7.238;2022-08-05T06:31:56;11.13;;;10.03;;
1082;SDS011;530;51.448;7.238;2022-08-05T06:34:22;9.90;;;8.90;;
1082;SDS011;530;51.448;7.238;2022-08-05T06:36:47;10.93;;;9.73;;
1082;SDS011;530;51.448;7.238;2022-08-05T06:39:13;12.80;;;10.53;;
1082;SDS011;530;51.448;7.238;2022-08-05T06:41:39;11.53;;;10.43;;
1082;SDS011;530;51.448;7.238;2022-08-05T06:44:05;11.07;;;10.00;;
1082;SDS011;530;51.448;7.238;2022-08-05T06:46:30;12.20;;;11.00;;
1082;SDS011;530;51.448;7.238;2022-08-05T06:48:56;13.17;;;11.87;;
1082;SDS011;530;51.448;7.238;2022-08-05T06:51:23;15.43;;;12.67;;
1082;SDS011;530;51.448;7.238;2022-08-05T06:53:49;15.30;;;13.80;;
1082;SDS011;530;51.448;7.238;2022-08-05T06:56:14;15.10;;;13.60;;
1082;SDS011;530;51.448;7.238;2022-08-05T06:58:40;15.93;;;14.33;;
1082;SDS011;530;51.448;7.238;2022-08-05T07:01:06;17.80;;;14.67;;
1082;SDS011;530;51.448;7.238;2022-08-05T07:03:32;17.80;;;14.23;;
1082;SDS011;530;51.448;7.238;2022-08-05T07:05:58;15.97;;;14.37;;
1082;SDS011;530;51.448;7.238;2022-08-05T07:08:28;16.77;;;14.93;;
1082;SDS011;530;51.448;7.238;2022-08-05T07:10:54;18.33;;;16.40;;
1082;SDS011;530;51.448;7.238;2022-08-05T07:13:23;15.60;;;13.93;;
1082;SDS011;530;51.448;7.238;2022-08-05T07:16:07;18.03;;;15.40;;
1082;SDS011;530;51.448;7.238;2022-08-05T07:18:52;16.70;;;13.97;;
1082;SDS011;530;51.448;7.238;2022-08-05T07:21:18;18.27;;;16.33;;
1082;SDS011;530;51.448;7.238;2022-08-05T07:23:44;19.70;;;15.27;;
1082;SDS011;530;51.448;7.238;2022-08-05T07:26:09;17.30;;;14.90;;
1082;SDS011;530;51.448;7.238;2022-08-05T07:28:35;17.27;;;15.57;;
1082;SDS011;530;51.448;7.238;2022-08-05T07:31:01;15.00;;;13.47;;
1082;SDS011;530;51.448;7.238;2022-08-05T07:33:27;16.03;;;14.43;;
1082;SDS011;530;51.448;7.238;2022-08-05T07:35:52;15.90;;;14.50;;
1082;SDS011;530;51.448;7.238;2022-08-05T07:38:18;15.03;;;13.23;;
1082;SDS011;530;51.448;7.238;2022-08-05T07:40:44;19.03;;;15.37;;
1082;SDS011;530;51.448;7.238;2022-08-05T07:43:10;15.27;;;13.50;;
1082;SDS011;530;51.448;7.238;2022-08-05T07:45:38;20.30;;;14.60;;
1082;SDS011;530;51.448;7.238;2022-08-05T07:48:06;16.20;;;14.40;;
1082;SDS011;530;51.448;7.238;2022-08-05T07:50:31;16.80;;;14.90;;
1082;SDS011;530;51.448;7.238;2022-08-05T07:52:57;15.00;;;13.60;;
1082;SDS011;530;51.448;7.238;2022-08-05T07:55:23;15.03;;;13.63;;
1082;SDS011;530;51.448;7.238;2022-08-05T07:57:49;15.80;;;13.73;;
1082;SDS011;530;51.448;7.238;2022-08-05T08:00:15;12.00;;;10.73;;
1082;SDS011;530;51.448;7.238;2022-08-05T08:02:41;13.23;;;11.93;;
1082;SDS011;530;51.448;7.238;2022-08-05T08:05:08;13.13;;;11.83;;
1082;SDS011;530;51.448;7.238;2022-08-05T08:07:34;12.33;;;11.00;;
1082;SDS011;530;51.448;7.238;2022-08-05T08:10:00;11.40;;;10.30;;
1082;SDS011;530;51.448;7.238;2022-08-05T08:12:25;10.40;;;9.40;;
1082;SDS011;530;51.448;7.238;2022-08-05T08:14:51;9.93;;;8.80;;
1082;SDS011;530;51.448;7.238;2022-08-05T08:17:17;9.60;;;7.87;;
1082;SDS011;530;51.448;7.238;2022-08-05T08:19:43;8.90;;;8.00;;
1082;SDS011;530;51.448;7.238;2022-08-05T08:22:09;9.87;;;8.90;;
1082;SDS011;530;51.448;7.238;2022-08-05T08:24:36;12.57;;;8.80;;
1082;SDS011;530;51.448;7.238;2022-08-05T08:27:02;9.60;;;8.70;;
1082;SDS011;530;51.448;7.238;2022-08-05T08:29:29;9.73;;;8.53;;
1082;SDS011;530;51.448;7.238;2022-08-05T08:31:55;8.70;;;8.00;;
1082;SDS011;530;51.448;7.238;2022-08-05T08:34:22;8.93;;;7.10;;
1082;SDS011;530;51.448;7.238;2022-08-05T08:36:49;7.90;;;7.20;;
1082;SDS011;530;51.448;7.238;2022-08-05T08:39:16;8.60;;;7.80;;
1082;SDS011;530;51.448;7.238;2022-08-05T08:41:43;10.77;;;7.67;;
1082;SDS011;530;51.448;7.238;2022-08-05T08:44:11;8.30;;;7.00;;
1082;SDS011;530;51.448;7.238;2022-08-05T08:46:39;9.30;;;7.50;;
1082;SDS011;530;51.448;7.238;2022-08-05T08:49:07;11.27;;;6.80;;
1082;SDS011;530;51.448;7.238;2022-08-05T08:51:34;8.07;;;7.23;;
1082;SDS011;530;51.448;7.238;2022-08-05T08:54:02;8.63;;;6.60;;
1082;SDS011;530;51.448;7.238;2022-08-05T08:56:29;6.47;;;5.80;;
1082;SDS011;530;51.448;7.238;2022-08-05T08:58:56;5.00;;;4.60;;
1082;SDS011;530;51.448;7.238;2022-08-05T09:01:23;5.60;;;5.10;;
1082;SDS011;530;51.448;7.238;2022-08-05T09:03:50;6.33;;;4.30;;
1082;SDS011;530;51.448;7.238;2022-08-05T09:06:17;6.80;;;5.33;;
1082;SDS011;530;51.448;7.238;2022-08-05T09:08:44;6.73;;;4.40;;
1082;SDS011;530;51.448;7.238;2022-08-05T09:11:10;6.00;;;4.70;;
1082;SDS011;530;51.448;7.238;2022-08-05T09:13:37;5.00;;;4.50;;
1082;SDS011;530;51.448;7.238;2022-08-05T09:16:03;6.00;;;5.20;;
1082;SDS011;530;51.448;7.238;2022-08-05T09:18:32;5.90;;;5.30;;
1082;SDS011;530;51.448;7.238;2022-08-05T09:21:00;5.37;;;4.87;;
1082;SDS011;530;51.448;7.238;2022-08-05T09:23:26;7.73;;;6.33;;
1082;SDS011;530;51.448;7.238;2022-08-05T09:26:07;6.13;;;5.27;;
1082;SDS011;530;51.448;7.238;2022-08-05T09:28:35;7.77;;;5.63;;
1082;SDS011;530;51.448;7.238;2022-08-05T09:31:03;6.63;;;5.93;;
1082;SDS011;530;51.448;7.238;2022-08-05T09:33:30;6.70;;;5.50;;
1082;SDS011;530;51.448;7.238;2022-08-05T09:36:04;8.47;;;5.67;;
1082;SDS011;530;51.448;7.238;2022-08-05T09:38:30;8.93;;;6.40;;
1082;SDS011;530;51.448;7.238;2022-08-05T09:41:03;7.03;;;5.33;;
1082;SDS011;530;51.448;7.238;2022-08-05T09:43:32;5.90;;;5.10;;
1082;SDS011;530;51.448;7.238;2022-08-05T09:46:00;9.27;;;5.40;;
1082;SDS011;530;51.448;7.238;2022-08-05T09:50:58;5.63;;;5.17;;
1082;SDS011;530;51.448;7.238;2022-08-05T09:53:27;7.07;;;5.03;;
1082;SDS011;530;51.448;7.238;2022-08-05T09:55:57;6.43;;;5.20;;
1082;SDS011;530;51.448;7.238;2022-08-05T09:58:24;6.50;;;5.50;;
1082;SDS011;530;51.448;7.238;2022-08-05T10:00:52;7.77;;;4.97;;
1082;SDS011;530;51.448;7.238;2022-08-05T10:03:21;5.47;;;4.90;;
1082;SDS011;530;51.448;7.238;2022-08-05T10:05:59;8.13;;;4.93;;
1082;SDS011;530;51.448;7.238;2022-08-05T10:08:29;6.00;;;4.97;;
1082;SDS011;530;51.448;7.238;2022-08-05T10:10:55;5.23;;;4.40;;
1082;SDS011;530;51.448;7.238;2022-08-05T10:13:27;6.53;;;4.43;;
1082;SDS011;530;51.448;7.238;2022-08-05T10:16:03;5.67;;;4.77;;
1082;SDS011;530;51.448;7.238;2022-08-05T10:18:30;8.83;;;5.50;;
1082;SDS011;530;51.448;7.238;2022-08-05T10:20:58;5.07;;;4.43;;
1082;SDS011;530;51.448;7.238;2022-08-05T10:23:30;5.33;;;4.47;;
1082;SDS011;530;51.448;7.238;2022-08-05T10:25:59;7.27;;;4.53;;
1082;SDS011;530;51.448;7.238;2022-08-05T10:28:33;6.17;;;4.70;;
1082;SDS011;530;51.448;7.238;2022-08-05T10:31:00;7.73;;;5.47;;
1082;SDS011;530;51.448;7.238;2022-08-05T10:33:27;6.13;;;4.80;;
1082;SDS011;530;51.448;7.238;2022-08-05T10:35:55;7.63;;;5.23;;
1082;SDS011;530;51.448;7.238;2022-08-05T10:38:22;6.03;;;5.23;;
1082;SDS011;530;51.448;7.238;2022-08-05T10:40:53;7.77;;;5.80;;
1082;SDS011;530;51.448;7.238;2022-08-05T10:45:57;5.23;;;3.80;;
1082;SDS011;530;51.448;7.238;2022-08-05T10:48:38;6.50;;;5.40;;
1082;SDS011;530;51.448;7.238;2022-08-05T10:51:09;8.80;;;5.23;;
1082;SDS011;530;51.448;7.238;2022-08-05T10:53:43;7.07;;;4.57;;
1082;SDS011;530;51.448;7.238;2022-08-05T10:56:22;5.30;;;4.80;;
1082;SDS011;530;51.448;7.238;2022-08-05T11:01:28;4.70;;;4.23;;
1082;SDS011;530;51.448;7.238;2022-08-05T11:04:02;4.80;;;4.30;;
1082;SDS011;530;51.448;7.238;2022-08-05T11:09:22;4.30;;;3.47;;
1082;SDS011;530;51.448;7.238;2022-08-05T11:11:49;7.67;;;4.07;;
1082;SDS011;530;51.448;7.238;2022-08-05T11:19:53;6.67;;;3.27;;
1082;SDS011;530;51.448;7.238;2022-08-05T11:22:38;4.17;;;3.63;;
1082;SDS011;530;51.448;7.238;2022-08-05T11:33:24;6.77;;;3.50;;
1082;SDS011;530;51.448;7.238;2022-08-05T11:38:49;3.07;;;2.77;;
1082;SDS011;530;51.448;7.238;2022-08-05T11:41:27;3.60;;;2.90;;
1082;SDS011;530;51.448;7.238;2022-08-05T11:43:59;3.43;;;3.00;;
1082;SDS011;530;51.448;7.238;2022-08-05T11:46:46;5.20;;;2.80;;
1082;SDS011;530;51.448;7.238;2022-08-05T11:49:14;4.37;;;2.60;;
1082;SDS011;530;51.448;7.238;2022-08-05T11:51:41;3.33;;;3.03;;
1082;SDS011;530;51.448;7.238;2022-08-05T11:54:09;4.70;;;3.00;;
1082;SDS011;530;51.448;7.238;2022-08-05T11:56:45;3.83;;;3.03;;
1082;SDS011;530;51.448;7.238;2022-08-05T11:59:23;3.47;;;3.20;;
1082;SDS011;530;51.448;7.238;2022-08-05T12:01:51;4.37;;;3.57;;
1082;SDS011;530;51.448;7.238;2022-08-05T12:04:20;4.40;;;3.77;;
1082;SDS011;530;51.448;7.238;2022-08-05T12:06:46;3.87;;;3.47;;
1082;SDS011;530;51.448;7.238;2022-08-05T12:09:13;3.90;;;3.60;;
1082;SDS011;530;51.448;7.238;2022-08-05T12:11:44;4.43;;;3.20;;
1082;SDS011;530;51.448;7.238;2022-08-05T12:14:10;3.67;;;3.37;;
1082;SDS011;530;51.448;7.238;2022-08-05T12:16:39;5.70;;;4.30;;
1082;SDS011;530;51.448;7.238;2022-08-05T12:19:07;5.27;;;3.90;;
1082;SDS011;530;51.448;7.238;2022-08-05T12:21:40;5.00;;;3.40;;
1082;SDS011;530;51.448;7.238;2022-08-05T12:24:11;4.63;;;4.13;;
1082;SDS011;530;51.448;7.238;2022-08-05T12:26:40;4.67;;;4.00;;
1082;SDS011;530;51.448;7.238;2022-08-05T12:29:09;3.90;;;3.60;;
1082;SDS011;530;51.448;7.238;2022-08-05T12:31:35;4.83;;;4.40;;
1082;SDS011;530;51.448;7.238;2022-08-05T12:34:02;4.90;;;4.13;;
1082;SDS011;530;51.448;7.238;2022-08-05T12:36:30;4.70;;;4.20;;
1082;SDS011;530;51.448;7.238;2022-08-05T12:38:57;4.50;;;4.10;;
1082;SDS011;530;51.448;7.238;2022-08-05T12:41:28;6.03;;;4.30;;
1082;SDS011;530;51.448;7.238;2022-08-05T12:43:56;4.63;;;4.23;;
1082;SDS011;530;51.448;7.238;2022-08-05T12:46:25;4.20;;;3.80;;
1082;SDS011;530;51.448;7.238;2022-08-05T12:48:55;5.10;;;4.70;;
1082;SDS011;530;51.448;7.238;2022-08-05T12:51:26;4.80;;;4.30;;
1082;SDS011;530;51.448;7.238;2022-08-05T12:54:00;5.20;;;4.70;;
1082;SDS011;530;51.448;7.238;2022-08-05T12:56:27;4.80;;;4.40;;
1082;SDS011;530;51.448;7.238;2022-08-05T13:04:28;7.57;;;6.67;;
1082;SDS011;530;51.448;7.238;2022-08-05T13:06:59;7.07;;;6.37;;
1082;SDS011;530;51.448;7.238;2022-08-05T13:09:26;7.10;;;6.43;;
1082;SDS011;530;51.448;7.238;2022-08-05T13:12:03;7.00;;;6.37;;
1082;SDS011;530;51.448;7.238;2022-08-05T13:14:41;7.10;;;5.43;;
1082;SDS011;530;51.448;7.238;2022-08-05T13:17:16;7.00;;;5.60;;
1082;SDS011;530;51.448;7.238;2022-08-05T13:19:59;8.80;;;6.70;;
1082;SDS011;530;51.448;7.238;2022-08-05T13:22:29;7.10;;;6.40;;
1082;SDS011;530;51.448;7.238;2022-08-05T13:24:58;6.77;;;6.13;;
1082;SDS011;530;51.448;7.238;2022-08-05T13:27:25;7.33;;;6.73;;
1082;SDS011;530;51.448;7.238;2022-08-05T13:29:56;7.43;;;6.80;;
1082;SDS011;530;51.448;7.238;2022-08-05T13:32:22;6.93;;;6.33;;
1082;SDS011;530;51.448;7.238;2022-08-05T13:34:49;7.20;;;6.50;;
1082;SDS011;530;51.448;7.238;2022-08-05T13:37:16;7.80;;;7.10;;
1082;SDS011;530;51.448;7.238;2022-08-05T13:39:46;8.13;;;7.43;;
1082;SDS011;530;51.448;7.238;2022-08-05T13:42:12;7.53;;;6.83;;
1082;SDS011;530;51.448;7.238;2022-08-05T13:44:38;6.03;;;5.43;;
1082;SDS011;530;51.448;7.238;2022-08-05T13:47:04;6.40;;;5.80;;
1082;SDS011;530;51.448;7.238;2022-08-05T13:49:30;5.63;;;5.23;;
1082;SDS011;530;51.448;7.238;2022-08-05T13:51:55;6.40;;;5.90;;
1082;SDS011;530;51.448;7.238;2022-08-05T13:54:22;5.20;;;4.70;;
1082;SDS011;530;51.448;7.238;2022-08-05T13:56:50;4.23;;;3.77;;
1082;SDS011;530;51.448;7.238;2022-08-05T13:59:17;4.10;;;3.40;;
1082;SDS011;530;51.448;7.238;2022-08-05T14:01:47;3.80;;;2.70;;
1082;SDS011;530;51.448;7.238;2022-08-05T14:04:13;4.37;;;3.00;;
1082;SDS011;530;51.448;7.238;2022-08-05T14:06:57;4.40;;;3.07;;
1082;SDS011;530;51.448;7.238;2022-08-05T14:09:22;4.57;;;2.90;;
1082;SDS011;530;51.448;7.238;2022-08-05T14:11:48;4.53;;;3.30;;
1082;SDS011;530;51.448;7.238;2022-08-05T14:14:14;3.13;;;2.57;;
1082;SDS011;530;51.448;7.238;2022-08-05T14:16:40;2.93;;;2.70;;
1082;SDS011;530;51.448;7.238;2022-08-05T14:19:05;5.00;;;2.60;;
1082;SDS011;530;51.448;7.238;2022-08-05T14:21:31;4.10;;;2.10;;
1082;SDS011;530;51.448;7.238;2022-08-05T14:23:57;4.33;;;2.60;;
1082;SDS011;530;51.448;7.238;2022-08-05T14:26:22;2.30;;;2.10;;
1082;SDS011;530;51.448;7.238;2022-08-05T14:28:48;4.07;;;2.37;;
1082;SDS011;530;51.448;7.238;2022-08-05T14:31:14;3.10;;;2.30;;
1082;SDS011;530;51.448;7.238;2022-08-05T14:33:39;3.43;;;2.10;;
1082;SDS011;530;51.448;7.238;2022-08-05T14:36:05;3.63;;;2.03;;
1082;SDS011;530;51.448;7.238;2022-08-05T14:38:31;3.00;;;2.20;;
1082;SDS011;530;51.448;7.238;2022-08-05T14:40:57;2.30;;;2.10;;
1082;SDS011;530;51.448;7.238;2022-08-05T14:43:23;2.83;;;1.97;;
1082;SDS011;530;51.448;7.238;2022-08-05T14:45:48;2.73;;;1.70;;
1082;SDS011;530;51.448;7.238;2022-08-05T14:48:14;2.80;;;2.13;;
1082;SDS011;530;51.448;7.238;2022-08-05T14:50:40;2.37;;;1.70;;
1082;SDS011;530;51.448;7.238;2022-08-05T14:53:05;1.90;;;1.53;;
1082;SDS011;530;51.448;7.238;2022-08-05T14:55:31;2.70;;;1.73;;
1082;SDS011;530;51.448;7.238;2022-08-05T14:57:57;7.00;;;2.70;;
1082;SDS011;530;51.448;7.238;2022-08-05T15:00:23;1.97;;;1.40;;
1082;SDS011;530;51.448;7.238;2022-08-05T15:02:48;1.93;;;1.40;;
1082;SDS011;530;51.448;7.238;2022-08-05T15:05:14;2.73;;;1.40;;
1082;SDS011;530;51.448;7.238;2022-08-05T15:07:40;1.40;;;1.17;;
1082;SDS011;530;51.448;7.238;2022-08-05T15:10:06;2.10;;;1.47;;
1082;SDS011;530;51.448;7.238;2022-08-05T15:12:32;2.83;;;1.30;;
1082;SDS011;530;51.448;7.238;2022-08-05T15:14:58;2.30;;;1.33;;
1082;SDS011;530;51.448;7.238;2022-08-05T15:17:24;2.60;;;1.40;;
1082;SDS011;530;51.448;7.238;2022-08-05T15:19:50;2.53;;;1.40;;
1082;SDS011;530;51.448;7.238;2022-08-05T15:22:16;1.37;;;1.03;;
1082;SDS011;530;51.448;7.238;2022-08-05T15:24:41;2.10;;;1.20;;
1082;SDS011;530;51.448;7.238;2022-08-05T15:27:09;1.57;;;1.30;;
1082;SDS011;530;51.448;7.238;2022-08-05T15:29:34;2.50;;;1.67;;
1082;SDS011;530;51.448;7.238;2022-08-05T15:32:00;5.47;;;1.40;;
1082;SDS011;530;51.448;7.238;2022-08-05T15:34:26;2.30;;;1.10;;
1082;SDS011;530;51.448;7.238;2022-08-05T15:36:51;2.63;;;1.40;;
1082;SDS011;530;51.448;7.238;2022-08-05T15:39:17;1.43;;;1.13;;
1082;SDS011;530;51.448;7.238;2022-08-05T15:41:43;2.60;;;0.90;;
1082;SDS011;530;51.448;7.238;2022-08-05T15:44:08;3.30;;;1.13;;
1082;SDS011;530;51.448;7.238;2022-08-05T15:46:34;1.93;;;1.10;;
1082;SDS011;530;51.448;7.238;2022-08-05T15:49:00;1.47;;;1.10;;
1082;SDS011;530;51.448;7.238;2022-08-05T15:51:26;1.73;;;0.97;;
1082;SDS011;530;51.448;7.238;2022-08-05T15:53:53;2.83;;;1.23;;
1082;SDS011;530;51.448;7.238;2022-08-05T15:56:19;2.43;;;1.30;;
1082;SDS011;530;51.448;7.238;2022-08-05T15:58:45;2.07;;;1.10;;
1082;SDS011;530;51.448;7.238;2022-08-05T16:01:11;3.00;;;0.87;;
1082;SDS011;530;51.448;7.238;2022-08-05T16:03:41;1.60;;;0.87;;
1082;SDS011;530;51.448;7.238;2022-08-05T16:06:08;2.40;;;0.80;;
1082;SDS011;530;51.448;7.238;2022-08-05T16:08:34;2.60;;;1.47;;
1082;SDS011;530;51.448;7.238;2022-08-05T16:11:00;2.70;;;1.30;;
1082;SDS011;530;51.448;7.238;2022-08-05T16:13:27;1.63;;;0.93;;